NBT7 EGKK-VHHH
Flight info
| Callsign | NBT7 |
|---|---|
| Flight time | N/A |
| Altitude | 35000 |
| Route | MIMFO Y312 DVR UL9 KONAN UL607 SPI Q50 ARCKY L607 UBIDU DCT SULUS Z650 VEMUT DCT PEMEL DCT DITIS DCT TOVKA DCT ALAMU DCT BUD DCT BUDOP DCT IRLOX DCT STJ DCT DINRO N743 UDROS UM859 BAMUP/N0488F370 UM859 KARDE UN644 ROLIN N644 LAGAS M747 LUSAL N199 RASAM L88 METKA B476 DARVA/K0907F370 T898 OGOLI N193 SR L163 TISIB L141 KAMUD/K0896S1190 W186 SADAN L888 SANLI/K0906S1220 L888 BIGOR/K0913S1190 W9 KDJ V69 BHS W237 IDBOR B330 GYA A599 POU R473 SIERA |
| Aircraft | B789/H-SDE1E2E3FGHIJ2J3J4J5M1RWXY/LB1D1 |
Departure
| Time | 2026-04-14 16:55 |
|---|---|
| Airport | London Gatwick Airport (EGKK) |
Arrival
| Time | N/A |
|---|---|
| Airport | Hong Kong International Airport (VHHH) |
| Time | Latitude | Longitude | Altitude | Speed | Heading |
|---|---|---|---|---|---|
| 2026-04-14 16:20 | 51.15826 | -0.17627 | 212 ft | 0 kts | 348° |
| 2026-04-14 16:37 | 51.15821 | -0.17626 | 209 ft | 3 kts | 348° |
| 2026-04-14 16:37 | 51.15801 | -0.17619 | 213 ft | 3 kts | 349° |
| 2026-04-14 16:38 | 51.15781 | -0.17613 | 219 ft | 3 kts | 343° |
| 2026-04-14 16:38 | 51.15761 | -0.17610 | 220 ft | 3 kts | 15° |
| 2026-04-14 16:38 | 51.15747 | -0.17632 | 221 ft | 3 kts | 67° |
| 2026-04-14 16:38 | 51.15743 | -0.17651 | 218 ft | 0 kts | 78° |
| 2026-04-14 16:40 | 51.15746 | -0.17627 | 221 ft | 5 kts | 77° |
| 2026-04-14 16:41 | 51.15746 | -0.17538 | 218 ft | 10 kts | 119° |
| 2026-04-14 16:41 | 51.15702 | -0.17489 | 218 ft | 5 kts | 168° |
| 2026-04-14 16:41 | 51.15669 | -0.17479 | 215 ft | 7 kts | 171° |
| 2026-04-14 16:41 | 51.15578 | -0.17450 | 217 ft | 17 kts | 167° |
| 2026-04-14 16:42 | 51.15470 | -0.17410 | 212 ft | 15 kts | 167° |
| 2026-04-14 16:42 | 51.15372 | -0.17374 | 216 ft | 14 kts | 167° |
| 2026-04-14 16:42 | 51.15284 | -0.17342 | 216 ft | 12 kts | 166° |
| 2026-04-14 16:42 | 51.15220 | -0.17287 | 220 ft | 7 kts | 139° |
| 2026-04-14 16:43 | 51.15214 | -0.17265 | 216 ft | 1 kts | 93° |
| 2026-04-14 16:43 | 51.15222 | -0.17248 | 220 ft | 5 kts | 52° |
| 2026-04-14 16:43 | 51.15257 | -0.17169 | 219 ft | 6 kts | 77° |
| 2026-04-14 16:43 | 51.15262 | -0.17120 | 216 ft | 4 kts | 81° |
| 2026-04-14 16:44 | 51.15267 | -0.17076 | 212 ft | 4 kts | 79° |
| 2026-04-14 16:44 | 51.15271 | -0.17048 | 214 ft | 0 kts | 78° |
| 2026-04-14 16:50 | 51.15272 | -0.17040 | 215 ft | 4 kts | 78° |
| 2026-04-14 16:50 | 51.15279 | -0.16990 | 214 ft | 5 kts | 78° |
| 2026-04-14 16:50 | 51.15286 | -0.16940 | 212 ft | 5 kts | 78° |
| 2026-04-14 16:50 | 51.15293 | -0.16886 | 218 ft | 7 kts | 77° |
| 2026-04-14 16:51 | 51.15289 | -0.16861 | 214 ft | 4 kts | 114° |
| 2026-04-14 16:51 | 51.15286 | -0.16852 | 216 ft | 0 kts | 120° |
| 2026-04-14 16:52 | 51.15280 | -0.16839 | 215 ft | 4 kts | 131° |
| 2026-04-14 16:52 | 51.15270 | -0.16828 | 215 ft | 0 kts | 149° |
| 2026-04-14 16:52 | 51.15261 | -0.16820 | 219 ft | 4 kts | 154° |
| 2026-04-14 16:52 | 51.15253 | -0.16817 | 215 ft | 0 kts | 166° |
| 2026-04-14 16:53 | 51.15249 | -0.16816 | 209 ft | 4 kts | 166° |
| 2026-04-14 16:53 | 51.15180 | -0.16790 | 214 ft | 14 kts | 170° |
| 2026-04-14 16:54 | 51.15112 | -0.16874 | 215 ft | 12 kts | 252° |
| 2026-04-14 16:54 | 51.15108 | -0.16903 | 213 ft | 0 kts | 256° |
| 2026-04-14 16:54 | 51.15100 | -0.16952 | 215 ft | 21 kts | 257° |
| 2026-04-14 16:54 | 51.15013 | -0.17554 | 219 ft | 89 kts | 258° |
| 2026-04-14 16:55 | 51.14837 | -0.18854 | 216 ft | 149 kts | 257° |
| 2026-04-14 16:55 | 51.14622 | -0.20609 | 574 ft | 167 kts | 253° |
| 2026-04-14 16:55 | 51.14355 | -0.22585 | 809 ft | 200 kts | 253° |
| 2026-04-14 16:55 | 51.14032 | -0.24865 | 1248 ft | 216 kts | 253° |
| 2026-04-14 16:56 | 51.13741 | -0.27176 | 2174 ft | 212 kts | 254° |
| 2026-04-14 16:56 | 51.13900 | -0.29588 | 2848 ft | 229 kts | 283° |
| 2026-04-14 16:56 | 51.14676 | -0.31800 | 3683 ft | 233 kts | 297° |
| 2026-04-14 16:56 | 51.15750 | -0.33877 | 4009 ft | 251 kts | 315° |
| 2026-04-14 16:57 | 51.17095 | -0.35547 | 4373 ft | 231 kts | 323° |
| 2026-04-14 16:57 | 51.18561 | -0.36404 | 5246 ft | 227 kts | 350° |
| 2026-04-14 16:57 | 51.20133 | -0.36076 | 5827 ft | 236 kts | 30° |
| 2026-04-14 16:57 | 51.21244 | -0.34181 | 6347 ft | 240 kts | 70° |
| 2026-04-14 16:58 | 51.21573 | -0.31587 | 6850 ft | 239 kts | 96° |
| 2026-04-14 16:58 | 51.21297 | -0.28966 | 7383 ft | 243 kts | 109° |
| 2026-04-14 16:58 | 51.20859 | -0.26306 | 7907 ft | 255 kts | 105° |
| 2026-04-14 16:58 | 51.20738 | -0.23428 | 8340 ft | 275 kts | 93° |
| 2026-04-14 16:59 | 51.20775 | -0.20283 | 8528 ft | 291 kts | 91° |
| 2026-04-14 16:59 | 51.20846 | -0.17033 | 9158 ft | 293 kts | 91° |
| 2026-04-14 16:59 | 51.20921 | -0.13765 | 10059 ft | 296 kts | 91° |
| 2026-04-14 16:59 | 51.20988 | -0.10403 | 10476 ft | 315 kts | 91° |
| 2026-04-14 17:00 | 51.21049 | -0.06764 | 10650 ft | 342 kts | 91° |
| 2026-04-14 17:00 | 51.21103 | -0.02830 | 10797 ft | 367 kts | 91° |
| 2026-04-14 17:00 | 51.21149 | 0.01363 | 11048 ft | 383 kts | 90° |
| 2026-04-14 17:00 | 51.21188 | 0.05643 | 11767 ft | 389 kts | 90° |
| 2026-04-14 17:01 | 51.21209 | 0.09990 | 12369 ft | 394 kts | 90° |
| 2026-04-14 17:01 | 51.21209 | 0.14394 | 12935 ft | 401 kts | 90° |
| 2026-04-14 17:01 | 51.21189 | 0.18880 | 13556 ft | 404 kts | 90° |
| 2026-04-14 17:01 | 51.21151 | 0.23320 | 14129 ft | 409 kts | 91° |
| 2026-04-14 17:02 | 51.21098 | 0.27869 | 14657 ft | 413 kts | 91° |
| 2026-04-14 17:02 | 51.21033 | 0.32468 | 15245 ft | 416 kts | 91° |
| 2026-04-14 17:02 | 51.20958 | 0.37106 | 15819 ft | 420 kts | 91° |
| 2026-04-14 17:02 | 51.20873 | 0.41784 | 16380 ft | 424 kts | 91° |
| 2026-04-14 17:03 | 51.20780 | 0.46503 | 16927 ft | 428 kts | 91° |
| 2026-04-14 17:03 | 51.20680 | 0.51253 | 17575 ft | 429 kts | 91° |
| 2026-04-14 17:03 | 51.20578 | 0.56040 | 17909 ft | 438 kts | 91° |
| 2026-04-14 17:03 | 51.20475 | 0.60784 | 18108 ft | 436 kts | 91° |
| 2026-04-14 17:04 | 51.20310 | 0.65643 | 18701 ft | 437 kts | 93° |
| 2026-04-14 17:04 | 51.20081 | 0.70493 | 19165 ft | 441 kts | 94° |
| 2026-04-14 17:04 | 51.19827 | 0.75321 | 19636 ft | 445 kts | 94° |
| 2026-04-14 17:04 | 51.19581 | 0.80238 | 20096 ft | 448 kts | 93° |
| 2026-04-14 17:05 | 51.19344 | 0.85229 | 20554 ft | 452 kts | 93° |
| 2026-04-14 17:05 | 51.19098 | 0.90248 | 21007 ft | 456 kts | 93° |
| 2026-04-14 17:05 | 51.18839 | 0.95300 | 21487 ft | 459 kts | 93° |
| 2026-04-14 17:05 | 51.18579 | 1.00364 | 21973 ft | 461 kts | 92° |
| 2026-04-14 17:06 | 51.18320 | 1.05489 | 22334 ft | 465 kts | 92° |
| 2026-04-14 17:06 | 51.18058 | 1.10612 | 22730 ft | 468 kts | 92° |
| 2026-04-14 17:06 | 51.17785 | 1.15825 | 23125 ft | 471 kts | 92° |
| 2026-04-14 17:06 | 51.17509 | 1.21054 | 23488 ft | 475 kts | 92° |
| 2026-04-14 17:07 | 51.17231 | 1.26319 | 23830 ft | 478 kts | 92° |
| 2026-04-14 17:07 | 51.16950 | 1.31592 | 24150 ft | 481 kts | 92° |
| 2026-04-14 17:07 | 51.16662 | 1.36930 | 24472 ft | 483 kts | 92° |
| 2026-04-14 17:07 | 51.16372 | 1.42264 | 24785 ft | 486 kts | 92° |
| 2026-04-14 17:08 | 51.16077 | 1.47641 | 25158 ft | 486 kts | 92° |
| 2026-04-14 17:08 | 51.15780 | 1.53029 | 25440 ft | 489 kts | 92° |
| 2026-04-14 17:08 | 51.15479 | 1.58442 | 25735 ft | 491 kts | 92° |
| 2026-04-14 17:08 | 51.15173 | 1.63871 | 26031 ft | 494 kts | 92° |
| 2026-04-14 17:09 | 51.14868 | 1.69260 | 26289 ft | 496 kts | 92° |
| 2026-04-14 17:09 | 51.14555 | 1.74742 | 26568 ft | 498 kts | 91° |
| 2026-04-14 17:09 | 51.14238 | 1.80241 | 26837 ft | 501 kts | 91° |
| 2026-04-14 17:09 | 51.13917 | 1.85775 | 27110 ft | 503 kts | 91° |
| 2026-04-14 17:10 | 51.13591 | 1.91328 | 27392 ft | 505 kts | 91° |
| 2026-04-14 17:10 | 51.13262 | 1.96894 | 27727 ft | 505 kts | 91° |
| 2026-04-14 17:10 | 51.12932 | 2.02471 | 27960 ft | 507 kts | 91° |
| 2026-04-14 17:10 | 51.12634 | 2.08077 | 28220 ft | 509 kts | 90° |
| 2026-04-14 17:11 | 51.12358 | 2.13697 | 28464 ft | 511 kts | 90° |
| 2026-04-14 17:11 | 51.12058 | 2.19348 | 28703 ft | 513 kts | 91° |
| 2026-04-14 17:11 | 51.11740 | 2.24942 | 28940 ft | 515 kts | 91° |
| 2026-04-14 17:11 | 51.11422 | 2.30633 | 29177 ft | 517 kts | 90° |
| 2026-04-14 17:12 | 51.11114 | 2.36333 | 29409 ft | 519 kts | 90° |
| 2026-04-14 17:12 | 51.10798 | 2.42054 | 29761 ft | 518 kts | 90° |
| 2026-04-14 17:12 | 51.10472 | 2.47782 | 29957 ft | 521 kts | 90° |
| 2026-04-14 17:12 | 51.10143 | 2.53520 | 30181 ft | 522 kts | 90° |
| 2026-04-14 17:13 | 51.09814 | 2.59287 | 30357 ft | 524 kts | 90° |
| 2026-04-14 17:13 | 51.09406 | 2.65061 | 30508 ft | 529 kts | 97° |
| 2026-04-14 17:13 | 51.08475 | 2.70758 | 30692 ft | 533 kts | 102° |
| 2026-04-14 17:13 | 51.07450 | 2.76430 | 30910 ft | 534 kts | 102° |
| 2026-04-14 17:14 | 51.06422 | 2.82024 | 31142 ft | 534 kts | 102° |
| 2026-04-14 17:14 | 51.05387 | 2.87706 | 31178 ft | 538 kts | 101° |
| 2026-04-14 17:14 | 51.03321 | 2.99067 | 31174 ft | 532 kts | 102° |
| 2026-04-14 17:15 | 51.01245 | 3.10332 | 31173 ft | 531 kts | 102° |
| 2026-04-14 17:15 | 50.99165 | 3.21599 | 31172 ft | 532 kts | 102° |